createdAt,value
2023-10-13T00:01:13.660Z,74.27
2023-10-13T00:03:41.945Z,74.17
2023-10-13T00:06:10.243Z,74.07
2023-10-13T00:08:38.253Z,73.93
2023-10-13T00:11:06.378Z,73.89
2023-10-13T00:14:03.317Z,73.92
2023-10-13T00:16:32.398Z,73.83
2023-10-13T00:19:00.131Z,73.73
2023-10-13T00:21:33.940Z,73.66
2023-10-13T00:24:13.638Z,73.54
2023-10-13T00:26:44.509Z,73.44
2023-10-13T00:29:15.157Z,73.37
2023-10-13T00:31:44.873Z,73.27
2023-10-13T00:34:21.051Z,73.33
2023-10-13T00:37:12.167Z,73.44
2023-10-13T00:39:46.181Z,73.53
2023-10-13T00:42:25.340Z,73.52
2023-10-13T00:44:56.108Z,73.59
2023-10-13T00:47:44.466Z,73.62
2023-10-13T00:50:16.479Z,73.50
2023-10-13T00:52:48.398Z,73.52
2023-10-13T00:55:18.542Z,73.45
2023-10-13T00:57:48.545Z,73.51
2023-10-13T01:00:30.150Z,73.54
2023-10-13T01:02:58.370Z,73.48
2023-10-13T01:05:27.560Z,73.72
2023-10-13T01:07:56.329Z,73.73
2023-10-13T01:10:28.933Z,73.80
2023-10-13T01:12:57.899Z,73.94
2023-10-13T01:15:34.450Z,74.15
2023-10-13T01:18:18.314Z,74.25
2023-10-13T01:20:53.606Z,74.37
2023-10-13T01:23:25.665Z,74.50
2023-10-13T01:25:55.284Z,74.49
2023-10-13T01:28:23.368Z,74.64
2023-10-13T01:30:54.685Z,74.80
2023-10-13T01:33:28.597Z,74.71
2023-10-13T01:36:00.141Z,74.58
2023-10-13T01:38:34.886Z,74.56
2023-10-13T01:41:06.083Z,74.72
2023-10-13T01:43:33.799Z,75.23
2023-10-13T01:46:01.488Z,75.59
2023-10-13T01:48:29.739Z,75.41
2023-10-13T01:51:01.282Z,75.62
2023-10-13T01:53:30.266Z,75.27
2023-10-13T01:56:00.622Z,74.84
2023-10-13T01:58:30.796Z,74.74
2023-10-13T02:00:58.498Z,75.12
2023-10-13T02:03:29.030Z,75.28
2023-10-13T02:05:59.516Z,75.26
2023-10-13T02:08:27.682Z,75.57
2023-10-13T02:10:56.802Z,75.87
2023-10-13T02:13:26.956Z,76.25
2023-10-13T02:15:58.711Z,76.45
2023-10-13T02:18:27.944Z,76.58
2023-10-13T02:20:58.557Z,76.75
2023-10-13T02:23:46.722Z,76.98
2023-10-13T02:26:31.463Z,77.25
2023-10-13T02:29:09.491Z,77.59
2023-10-13T02:31:38.341Z,77.92
2023-10-13T02:34:14.789Z,78.00
2023-10-13T02:36:49.961Z,78.15
2023-10-13T02:39:17.948Z,78.47
2023-10-13T02:41:49.663Z,78.51
2023-10-13T02:44:43.975Z,78.71
2023-10-13T02:47:15.873Z,78.95
2023-10-13T02:49:49.183Z,79.07
2023-10-13T02:52:17.042Z,79.01
2023-10-13T02:54:48.640Z,78.97
2023-10-13T02:57:19.364Z,78.72
2023-10-13T02:59:58.454Z,78.55
2023-10-13T03:02:27.328Z,78.58
2023-10-13T03:05:01.157Z,78.66
2023-10-13T03:07:32.652Z,78.64
2023-10-13T03:10:11.475Z,78.35
2023-10-13T03:12:41.594Z,78.01
2023-10-13T03:15:18.910Z,77.81
2023-10-13T03:17:47.415Z,77.56
2023-10-13T03:20:23.879Z,77.33
2023-10-13T03:22:54.359Z,77.10
2023-10-13T03:25:31.342Z,76.80
2023-10-13T03:28:02.237Z,76.66
2023-10-13T03:30:37.336Z,76.41
2023-10-13T03:33:13.385Z,76.19
2023-10-13T03:35:43.688Z,75.83
2023-10-13T03:38:19.091Z,75.63
2023-10-13T03:40:58.023Z,75.24
2023-10-13T03:43:25.955Z,75.07
2023-10-13T03:46:02.238Z,74.65
2023-10-13T03:48:30.421Z,74.76
2023-10-13T03:51:08.303Z,74.58
2023-10-13T03:53:56.565Z,74.38
2023-10-13T03:56:32.870Z,74.32
2023-10-13T03:59:07.055Z,74.20
2023-10-13T04:01:44.822Z,73.89
2023-10-13T04:04:31.254Z,73.60
2023-10-13T04:07:11.316Z,73.37
2023-10-13T04:09:39.891Z,73.12
2023-10-13T04:12:28.038Z,72.83
2023-10-13T04:15:07.733Z,72.27
2023-10-13T04:17:42.403Z,71.19
2023-10-13T04:20:12.418Z,71.34
2023-10-13T04:22:47.601Z,71.35
2023-10-13T04:25:45.002Z,72.00
2023-10-13T04:28:18.029Z,72.74
2023-10-13T04:31:00.551Z,72.95
2023-10-13T04:33:37.914Z,73.03
2023-10-13T04:36:27.003Z,72.77
2023-10-13T04:38:58.051Z,72.64
2023-10-13T04:41:38.023Z,72.40
2023-10-13T04:44:24.949Z,72.25
2023-10-13T04:46:53.142Z,72.15
2023-10-13T04:49:48.462Z,72.09
2023-10-13T04:52:46.286Z,71.82
2023-10-13T04:55:44.898Z,72.03
2023-10-13T04:58:16.346Z,72.24
2023-10-13T05:01:16.015Z,72.26
2023-10-13T05:04:02.054Z,72.14
2023-10-13T05:06:44.930Z,71.35
2023-10-13T05:09:32.768Z,71.31
2023-10-13T05:12:18.948Z,70.74
2023-10-13T05:15:06.446Z,70.42
2023-10-13T05:17:53.605Z,69.73
2023-10-13T05:20:39.791Z,69.86
2023-10-13T05:23:25.991Z,69.39
2023-10-13T05:26:12.187Z,69.41
2023-10-13T05:28:58.143Z,69.50
2023-10-13T05:31:44.518Z,69.60
2023-10-13T05:34:30.741Z,69.64
2023-10-13T05:37:17.245Z,69.53
2023-10-13T05:40:06.605Z,69.45
2023-10-13T05:42:53.040Z,69.56
2023-10-13T05:45:39.922Z,69.91
2023-10-13T05:48:15.482Z,69.87
2023-10-13T05:50:58.865Z,69.45
2023-10-13T05:53:44.798Z,69.59
2023-10-13T05:56:30.919Z,69.51
2023-10-13T05:59:17.356Z,69.41
2023-10-13T06:02:03.844Z,69.07
2023-10-13T06:04:50.718Z,68.96
2023-10-13T06:07:37.205Z,68.11
2023-10-13T06:10:23.738Z,67.70
2023-10-13T06:13:10.055Z,67.54
2023-10-13T06:15:56.925Z,67.49
2023-10-13T06:18:43.202Z,67.17
2023-10-13T06:21:29.565Z,67.11
2023-10-13T06:24:15.935Z,66.74
2023-10-13T06:27:02.043Z,66.35
2023-10-13T06:29:29.652Z,66.38
2023-10-13T06:31:59.318Z,66.07
2023-10-13T06:34:39.170Z,66.20
2023-10-13T06:37:25.755Z,65.64
2023-10-13T06:39:57.785Z,65.82
2023-10-13T06:42:28.531Z,65.69
2023-10-13T06:44:57.004Z,65.95
2023-10-13T06:47:25.882Z,66.36
2023-10-13T06:49:56.011Z,66.40
2023-10-13T06:52:24.105Z,66.15
2023-10-13T06:54:52.561Z,66.23
2023-10-13T06:57:23.424Z,65.72
2023-10-13T06:59:52.863Z,66.03
2023-10-13T07:02:28.599Z,64.68
2023-10-13T07:05:09.461Z,67.85
2023-10-13T07:07:38.411Z,68.36
2023-10-13T07:10:10.869Z,69.38
2023-10-13T07:12:39.610Z,70.94
2023-10-13T07:15:21.939Z,71.53
2023-10-13T07:17:56.487Z,71.85
2023-10-13T07:20:30.073Z,72.07
2023-10-13T07:23:07.656Z,71.91
2023-10-13T07:25:38.889Z,71.84
2023-10-13T07:28:09.964Z,72.03
2023-10-13T07:30:51.057Z,71.63
2023-10-13T07:33:21.472Z,71.10
2023-10-13T07:36:01.671Z,71.31
2023-10-13T07:38:32.654Z,70.79
2023-10-13T07:41:08.647Z,70.37
2023-10-13T07:43:38.712Z,69.21
2023-10-13T07:46:13.617Z,67.30
2023-10-13T07:48:46.934Z,65.06
2023-10-13T07:51:17.790Z,64.59
2023-10-13T07:53:46.388Z,63.78
2023-10-13T07:56:14.452Z,62.80
2023-10-13T07:59:05.311Z,62.82
2023-10-13T08:01:35.447Z,61.66
2023-10-13T08:04:06.780Z,61.68
2023-10-13T08:06:37.627Z,62.32
2023-10-13T08:09:09.459Z,62.33
2023-10-13T08:11:41.509Z,62.34
2023-10-13T08:14:18.666Z,61.66
2023-10-13T08:17:02.161Z,61.24
2023-10-13T08:19:50.536Z,60.95
2023-10-13T08:22:20.929Z,59.40
2023-10-13T08:24:50.601Z,59.84
2023-10-13T08:27:38.105Z,59.41
2023-10-13T08:30:27.841Z,58.66
2023-10-13T08:32:55.986Z,58.26
2023-10-13T08:35:35.339Z,58.39
2023-10-13T08:38:26.849Z,57.44
2023-10-13T08:41:01.445Z,57.62
2023-10-13T08:43:44.739Z,57.23
2023-10-13T08:46:26.192Z,56.75
2023-10-13T08:49:27.029Z,56.17
2023-10-13T08:52:10.141Z,55.95
2023-10-13T08:54:46.708Z,54.20
2023-10-13T08:57:32.687Z,52.76
2023-10-13T09:00:20.380Z,52.23
2023-10-13T09:03:06.640Z,51.64
2023-10-13T09:05:43.852Z,53.17
2023-10-13T09:08:17.472Z,53.43
2023-10-13T09:11:07.149Z,52.27
2023-10-13T09:13:45.694Z,51.83
2023-10-13T09:16:44.021Z,51.88
2023-10-13T09:19:13.653Z,52.47
2023-10-13T09:21:44.626Z,51.47
2023-10-13T09:24:39.794Z,51.60
2023-10-13T09:27:08.028Z,52.24
2023-10-13T09:29:40.445Z,52.85
2023-10-13T09:32:13.488Z,52.72
2023-10-13T09:34:46.062Z,53.99
2023-10-13T09:37:22.253Z,54.17
2023-10-13T09:39:54.572Z,53.88
2023-10-13T09:42:25.127Z,53.75
2023-10-13T09:44:57.068Z,53.42
2023-10-13T09:47:32.430Z,53.88
2023-10-13T09:50:07.449Z,54.11
2023-10-13T09:52:39.072Z,52.80
2023-10-13T09:55:19.775Z,52.89
2023-10-13T09:58:00.586Z,52.00
2023-10-13T10:00:36.060Z,52.02
2023-10-13T10:03:16.845Z,52.35
2023-10-13T10:06:01.215Z,51.08
2023-10-13T10:08:35.715Z,50.24
2023-10-13T10:11:42.035Z,49.61
2023-10-13T10:14:18.952Z,49.06
2023-10-13T10:16:55.680Z,49.71
2023-10-13T10:19:23.478Z,49.88
2023-10-13T10:21:51.816Z,49.94
2023-10-13T10:24:31.463Z,49.45
2023-10-13T10:27:05.711Z,50.01
2023-10-13T10:30:03.804Z,50.41
2023-10-13T10:46:19.755Z,50.29
2023-10-13T10:48:49.408Z,49.96
2023-10-13T10:51:23.062Z,48.95
2023-10-13T10:53:53.899Z,48.04
2023-10-13T10:56:38.418Z,45.61
2023-10-13T10:59:20.312Z,42.55
2023-10-13T11:01:48.896Z,41.86
2023-10-13T11:04:17.604Z,41.22
2023-10-13T11:06:51.094Z,41.31
2023-10-13T11:09:33.579Z,43.16
2023-10-13T11:12:07.746Z,42.50
2023-10-13T11:14:35.848Z,43.26
2023-10-13T11:17:06.595Z,42.80
2023-10-13T11:19:39.264Z,42.22
2023-10-13T11:22:36.379Z,42.01
2023-10-13T11:25:12.511Z,40.13
2023-10-13T11:27:50.335Z,40.78
2023-10-13T11:30:26.338Z,40.46
2023-10-13T11:33:00.975Z,40.83
2023-10-13T11:35:50.550Z,41.05
2023-10-13T11:38:27.826Z,39.84
2023-10-13T11:41:05.865Z,39.75
2023-10-13T11:43:44.147Z,40.19
2023-10-13T11:46:20.722Z,38.64
2023-10-13T11:48:48.505Z,36.81
2023-10-13T11:51:25.559Z,36.21
2023-10-13T11:53:53.665Z,35.28
2023-10-13T11:56:22.277Z,33.97
2023-10-13T11:58:51.157Z,32.39
2023-10-13T12:01:19.767Z,33.38
2023-10-13T12:04:10.276Z,33.25
2023-10-13T12:06:38.300Z,32.72
2023-10-13T12:09:16.382Z,32.66
2023-10-13T12:11:46.278Z,33.58
2023-10-13T12:14:29.120Z,35.52
2023-10-13T12:16:57.817Z,37.01
2023-10-13T12:19:26.220Z,36.92
2023-10-13T12:21:58.533Z,36.46
2023-10-13T12:24:38.039Z,36.65
2023-10-13T12:27:24.812Z,35.87
2023-10-13T12:29:54.145Z,35.49
2023-10-13T12:32:32.282Z,35.81
2023-10-13T12:35:03.266Z,34.55
2023-10-13T12:37:45.633Z,35.71
2023-10-13T12:40:38.859Z,35.33
2023-10-13T12:43:25.671Z,35.15
2023-10-13T12:46:12.623Z,36.10
2023-10-13T12:49:05.667Z,35.70
2023-10-13T12:51:33.489Z,35.74
2023-10-13T12:54:38.052Z,35.51
2023-10-13T12:57:10.701Z,35.02
2023-10-13T12:59:40.707Z,34.92
2023-10-13T13:02:09.718Z,35.29
2023-10-13T13:04:45.464Z,35.32
2023-10-13T13:07:15.842Z,34.52
2023-10-13T13:09:43.705Z,35.16
2023-10-13T13:12:14.040Z,34.75
2023-10-13T13:14:47.750Z,34.46
2023-10-13T13:17:15.689Z,34.21
2023-10-13T13:19:43.655Z,34.41
2023-10-13T13:22:14.686Z,34.86
2023-10-13T13:24:46.710Z,35.22
2023-10-13T13:27:23.761Z,34.73
2023-10-13T13:29:51.688Z,34.79
2023-10-13T13:32:26.456Z,35.09
2023-10-13T13:35:10.331Z,35.24
2023-10-13T13:37:38.917Z,35.30
2023-10-13T13:40:17.355Z,35.60
2023-10-13T13:42:46.522Z,36.98
2023-10-13T13:45:33.218Z,38.18
2023-10-13T13:48:03.142Z,39.53
2023-10-13T13:50:33.295Z,40.66
2023-10-13T13:53:10.354Z,41.79
2023-10-13T13:55:41.395Z,42.04
2023-10-13T13:58:14.332Z,41.55
2023-10-13T14:00:49.953Z,41.49
2023-10-13T14:03:33.152Z,42.08
2023-10-13T14:06:18.255Z,42.71
2023-10-13T14:08:53.534Z,43.72
2023-10-13T14:11:44.113Z,44.27
2023-10-13T14:14:22.308Z,45.47
2023-10-13T14:16:50.489Z,46.38
2023-10-13T14:19:30.875Z,47.29
2023-10-13T14:21:59.731Z,47.96
2023-10-13T14:24:34.697Z,48.79
2023-10-13T14:27:10.883Z,49.29
2023-10-13T14:29:43.682Z,49.90
2023-10-13T14:32:13.661Z,50.46
2023-10-13T14:34:42.676Z,50.77
2023-10-13T14:37:14.164Z,50.86
2023-10-13T14:39:42.411Z,51.28
2023-10-13T14:42:10.221Z,51.45
2023-10-13T14:44:38.625Z,51.88
2023-10-13T14:47:10.463Z,52.13
2023-10-13T14:49:38.407Z,52.37
2023-10-13T14:52:06.833Z,52.59
2023-10-13T14:54:34.563Z,52.80
2023-10-13T14:57:05.155Z,53.13
2023-10-13T14:59:40.110Z,53.12
2023-10-13T15:02:08.143Z,53.23
2023-10-13T15:04:36.337Z,53.18
2023-10-13T15:07:04.279Z,53.45
2023-10-13T15:09:32.148Z,53.56
2023-10-13T15:12:00.198Z,53.76
2023-10-13T15:14:27.847Z,53.88
2023-10-13T15:16:56.769Z,53.88
2023-10-13T15:19:24.906Z,54.15
2023-10-13T15:21:54.282Z,54.47
2023-10-13T15:24:29.172Z,54.70
2023-10-13T15:27:04.469Z,54.78
2023-10-13T15:29:38.761Z,55.03
2023-10-13T15:32:27.756Z,55.30
2023-10-13T15:34:57.195Z,55.32
2023-10-13T15:37:26.928Z,55.80
2023-10-13T15:39:54.931Z,55.96
2023-10-13T15:42:22.662Z,56.06
2023-10-13T15:44:51.449Z,56.25
2023-10-13T15:49:50.172Z,57.04
2023-10-13T15:52:17.827Z,57.16
2023-10-13T15:54:45.553Z,57.34
2023-10-13T15:57:17.922Z,57.58
2023-10-13T15:59:47.855Z,57.74
2023-10-13T16:02:21.155Z,57.94
2023-10-13T16:04:49.395Z,58.02
2023-10-13T16:07:19.376Z,58.24
2023-10-13T16:09:47.103Z,58.22
2023-10-13T16:12:16.844Z,58.54
2023-10-13T16:14:44.530Z,59.07
2023-10-13T16:17:12.148Z,59.04
2023-10-13T16:19:41.031Z,59.35
2023-10-13T16:22:11.363Z,59.44
2023-10-13T16:24:39.115Z,59.53
2023-10-13T16:27:08.227Z,59.70
2023-10-13T16:29:35.928Z,60.02
2023-10-13T16:32:04.720Z,60.19
2023-10-13T16:34:32.557Z,60.35
2023-10-13T16:37:00.324Z,60.50
2023-10-13T16:39:29.750Z,60.57
2023-10-13T16:41:57.506Z,60.79
2023-10-13T16:44:28.249Z,61.01
2023-10-13T16:47:02.413Z,61.53
2023-10-13T16:49:31.765Z,61.48
2023-10-13T16:52:01.908Z,61.99
2023-10-13T16:54:29.679Z,61.86
2023-10-13T16:56:57.335Z,62.31
2023-10-13T16:59:28.002Z,62.51
2023-10-13T17:01:56.497Z,62.63
2023-10-13T17:04:28.189Z,63.13
2023-10-13T17:06:56.452Z,63.41
2023-10-13T17:09:25.902Z,63.63
2023-10-13T17:11:53.899Z,63.69
2023-10-13T17:14:21.760Z,63.88
2023-10-13T17:16:49.717Z,63.96
2023-10-13T17:19:17.381Z,63.85
2023-10-13T17:21:45.789Z,63.87
2023-10-13T17:24:14.881Z,63.81
2023-10-13T17:26:42.555Z,63.90
2023-10-13T17:29:13.075Z,63.93
2023-10-13T17:31:40.732Z,64.04
2023-10-13T17:34:08.513Z,64.15
2023-10-13T17:36:36.644Z,64.36
2023-10-13T17:39:04.982Z,64.33
2023-10-13T17:41:33.904Z,64.37
2023-10-13T17:44:03.678Z,64.17
2023-10-13T17:46:31.531Z,64.09
2023-10-13T17:48:59.411Z,64.08
2023-10-13T17:51:27.115Z,64.00
2023-10-13T17:53:56.674Z,63.99
2023-10-13T17:56:24.799Z,64.05
2023-10-13T17:58:55.047Z,63.98
2023-10-13T18:01:22.782Z,64.11
2023-10-13T18:03:52.795Z,64.07
2023-10-13T18:06:22.535Z,63.98
2023-10-13T18:08:52.754Z,63.85
2023-10-13T18:11:20.549Z,63.80
2023-10-13T18:13:49.738Z,63.77
2023-10-13T18:16:19.212Z,63.88
2023-10-13T18:18:48.186Z,63.88
2023-10-13T18:21:16.119Z,63.90
2023-10-13T18:23:44.570Z,63.95
2023-10-13T18:26:16.740Z,63.89
2023-10-13T18:28:45.173Z,64.09
2023-10-13T18:31:13.379Z,64.24
2023-10-13T18:33:42.734Z,64.34
2023-10-13T18:36:29.457Z,64.36
2023-10-13T18:39:02.168Z,64.31
2023-10-13T18:41:32.164Z,64.28
2023-10-13T18:44:01.146Z,64.43
2023-10-13T18:46:30.637Z,64.45
2023-10-13T18:49:03.420Z,64.46
2023-10-13T18:51:34.081Z,64.41
2023-10-13T18:54:03.296Z,64.42
2023-10-13T18:56:32.468Z,64.52
2023-10-13T18:59:03.814Z,64.49
2023-10-13T19:01:36.169Z,64.46
2023-10-13T19:04:09.774Z,64.59
2023-10-13T19:06:37.599Z,64.68
2023-10-13T19:09:09.163Z,64.80
2023-10-13T19:11:40.979Z,64.93
2023-10-13T19:14:11.997Z,65.07
2023-10-13T19:16:47.699Z,65.33
2023-10-13T19:19:16.156Z,65.45
2023-10-13T19:21:47.968Z,65.69
2023-10-13T19:24:16.738Z,65.99
2023-10-13T19:26:45.113Z,66.05
2023-10-13T19:29:13.058Z,66.37
2023-10-13T19:31:40.890Z,66.67
2023-10-13T19:34:08.829Z,66.67
2023-10-13T19:36:36.761Z,67.22
2023-10-13T19:39:08.873Z,67.47
2023-10-13T19:41:38.138Z,67.46
2023-10-13T19:44:06.470Z,67.74
2023-10-13T19:46:38.771Z,67.78
2023-10-13T19:49:06.845Z,68.25
2023-10-13T19:51:35.883Z,68.42
2023-10-13T19:54:04.814Z,68.48
2023-10-13T19:56:33.975Z,69.04
2023-10-13T19:59:02.900Z,69.29
2023-10-13T20:01:35.457Z,69.65
2023-10-13T20:04:08.935Z,69.78
2023-10-13T20:06:37.395Z,69.96
2023-10-13T20:09:25.958Z,69.83
2023-10-13T20:11:54.476Z,70.09
2023-10-13T20:14:24.777Z,70.00
2023-10-13T20:16:52.518Z,70.16
2023-10-13T20:19:23.237Z,70.19
2023-10-13T20:21:51.475Z,70.20
2023-10-13T20:24:19.138Z,70.51
2023-10-13T20:26:48.378Z,70.39
2023-10-13T20:29:18.937Z,70.65
2023-10-13T20:31:50.604Z,70.62
2023-10-13T20:34:24.768Z,70.67
2023-10-13T20:36:56.238Z,70.83
2023-10-13T20:39:42.318Z,70.87
2023-10-13T20:42:10.224Z,70.92
2023-10-13T20:44:41.581Z,71.24
2023-10-13T20:47:12.457Z,71.43
2023-10-13T20:49:41.739Z,71.50
2023-10-13T20:52:09.628Z,71.81
2023-10-13T20:54:37.525Z,71.81
2023-10-13T20:57:09.690Z,71.79
2023-10-13T20:59:41.235Z,71.82
2023-10-13T21:02:09.199Z,72.02
2023-10-13T21:04:37.326Z,72.16
2023-10-13T21:07:06.296Z,72.25
2023-10-13T21:09:34.253Z,72.29
2023-10-13T21:12:06.154Z,72.60
2023-10-13T21:14:35.640Z,72.66
2023-10-13T21:17:05.772Z,73.01
2023-10-13T21:19:37.591Z,72.91
2023-10-13T21:22:09.686Z,72.79
2023-10-13T21:24:40.593Z,72.94
2023-10-13T21:27:08.249Z,72.97
2023-10-13T21:29:36.137Z,72.93
2023-10-13T21:32:04.540Z,72.79
2023-10-13T21:34:32.472Z,72.82
2023-10-13T21:37:01.157Z,72.76
2023-10-13T21:39:45.491Z,73.01
2023-10-13T21:42:13.326Z,72.92
2023-10-13T21:44:40.931Z,72.77
2023-10-13T21:47:08.575Z,72.76
2023-10-13T21:49:37.003Z,72.70
2023-10-13T21:52:04.902Z,72.80
2023-10-13T21:54:33.763Z,72.67
2023-10-13T21:57:02.933Z,72.62
2023-10-13T21:59:30.831Z,72.55
2023-10-13T22:01:58.410Z,72.57
2023-10-13T22:04:32.094Z,72.43
2023-10-13T22:07:03.062Z,72.23
2023-10-13T22:09:30.942Z,72.20
2023-10-13T22:11:58.652Z,71.99
2023-10-13T22:14:26.717Z,72.02
2023-10-13T22:16:54.322Z,71.84
2023-10-13T22:19:22.240Z,71.84
2023-10-13T22:21:53.519Z,71.87
2023-10-13T22:24:22.234Z,71.84
2023-10-13T22:26:50.047Z,71.82
2023-10-13T22:29:18.569Z,71.86
2023-10-13T22:31:46.379Z,71.92
2023-10-13T22:34:15.726Z,71.87
2023-10-13T22:36:59.042Z,71.80
2023-10-13T22:39:34.841Z,71.67
2023-10-13T22:42:02.938Z,71.71
2023-10-13T22:44:30.711Z,71.72
2023-10-13T22:46:58.423Z,71.60
2023-10-13T22:49:26.043Z,71.52
2023-10-13T22:51:54.833Z,71.52
2023-10-13T22:54:22.513Z,71.53
2023-10-13T22:56:51.290Z,71.46
2023-10-13T22:59:18.989Z,71.49
2023-10-13T23:01:46.766Z,71.51
2023-10-13T23:04:17.700Z,71.50
2023-10-13T23:06:51.081Z,71.65
2023-10-13T23:09:28.168Z,71.73
2023-10-13T23:12:06.863Z,71.76
2023-10-13T23:14:34.750Z,71.93
2023-10-13T23:17:04.320Z,71.90
2023-10-13T23:19:36.829Z,71.98
2023-10-13T23:22:07.816Z,71.89
2023-10-13T23:24:38.616Z,72.05
2023-10-13T23:27:06.602Z,71.98
2023-10-13T23:29:37.521Z,71.99
2023-10-13T23:32:05.545Z,71.91
2023-10-13T23:34:33.243Z,71.90
2023-10-13T23:37:03.056Z,71.98
2023-10-13T23:39:36.583Z,71.95
2023-10-13T23:42:08.762Z,71.94
2023-10-13T23:44:36.782Z,72.10
2023-10-13T23:47:05.488Z,72.02
2023-10-13T23:49:33.233Z,72.14
2023-10-13T23:52:04.161Z,72.09
2023-10-13T23:54:32.376Z,72.15
2023-10-13T23:57:02.349Z,72.23
2023-10-13T23:59:30.344Z,72.32
